sensor_id;sensor_type;location;lat;lon;timestamp;P1;durP1;ratioP1;P2;durP2;ratioP2
82296;SDS011;71899;51.992;8.648;2024-01-30T00:01:52;27.73;;;17.38;;
82296;SDS011;71899;51.992;8.648;2024-01-30T00:04:17;28.45;;;18.50;;
82296;SDS011;71899;51.992;8.648;2024-01-30T00:06:45;37.13;;;18.85;;
82296;SDS011;71899;51.992;8.648;2024-01-30T00:09:11;33.38;;;18.30;;
82296;SDS011;71899;51.992;8.648;2024-01-30T00:11:36;25.75;;;17.02;;
82296;SDS011;71899;51.992;8.648;2024-01-30T00:14:02;26.40;;;17.55;;
82296;SDS011;71899;51.992;8.648;2024-01-30T00:16:28;29.35;;;18.40;;
82296;SDS011;71899;51.992;8.648;2024-01-30T00:18:53;28.67;;;17.75;;
82296;SDS011;71899;51.992;8.648;2024-01-30T00:21:20;27.92;;;15.80;;
82296;SDS011;71899;51.992;8.648;2024-01-30T00:23:45;30.25;;;16.77;;
82296;SDS011;71899;51.992;8.648;2024-01-30T00:26:11;26.88;;;18.85;;
82296;SDS011;71899;51.992;8.648;2024-01-30T00:28:39;30.52;;;17.95;;
82296;SDS011;71899;51.992;8.648;2024-01-30T00:31:04;34.63;;;19.90;;
82296;SDS011;71899;51.992;8.648;2024-01-30T00:33:30;31.80;;;18.98;;
82296;SDS011;71899;51.992;8.648;2024-01-30T00:35:55;33.30;;;19.38;;
82296;SDS011;71899;51.992;8.648;2024-01-30T00:38:21;39.65;;;19.27;;
82296;SDS011;71899;51.992;8.648;2024-01-30T00:40:48;36.30;;;21.08;;
82296;SDS011;71899;51.992;8.648;2024-01-30T00:43:13;33.00;;;19.20;;
82296;SDS011;71899;51.992;8.648;2024-01-30T00:45:39;38.65;;;21.17;;
82296;SDS011;71899;51.992;8.648;2024-01-30T00:48:04;31.85;;;20.33;;
82296;SDS011;71899;51.992;8.648;2024-01-30T00:50:30;41.58;;;21.85;;
82296;SDS011;71899;51.992;8.648;2024-01-30T00:52:55;34.55;;;20.30;;
82296;SDS011;71899;51.992;8.648;2024-01-30T00:55:21;31.17;;;19.27;;
82296;SDS011;71899;51.992;8.648;2024-01-30T00:57:46;36.28;;;20.48;;
82296;SDS011;71899;51.992;8.648;2024-01-30T01:00:12;36.00;;;19.73;;
82296;SDS011;71899;51.992;8.648;2024-01-30T01:02:38;39.22;;;21.02;;
82296;SDS011;71899;51.992;8.648;2024-01-30T01:05:04;43.17;;;21.88;;
82296;SDS011;71899;51.992;8.648;2024-01-30T01:07:30;39.75;;;22.02;;
82296;SDS011;71899;51.992;8.648;2024-01-30T01:09:55;34.25;;;20.60;;
82296;SDS011;71899;51.992;8.648;2024-01-30T01:12:21;36.83;;;21.85;;
82296;SDS011;71899;51.992;8.648;2024-01-30T01:14:46;38.80;;;22.60;;
82296;SDS011;71899;51.992;8.648;2024-01-30T01:17:12;34.17;;;19.98;;
82296;SDS011;71899;51.992;8.648;2024-01-30T01:19:37;44.67;;;22.90;;
82296;SDS011;71899;51.992;8.648;2024-01-30T01:22:02;35.15;;;22.13;;
82296;SDS011;71899;51.992;8.648;2024-01-30T01:24:28;38.72;;;22.15;;
82296;SDS011;71899;51.992;8.648;2024-01-30T01:26:56;37.03;;;21.98;;
82296;SDS011;71899;51.992;8.648;2024-01-30T01:29:22;46.22;;;23.80;;
82296;SDS011;71899;51.992;8.648;2024-01-30T01:31:53;41.35;;;23.02;;
82296;SDS011;71899;51.992;8.648;2024-01-30T01:34:19;41.03;;;23.00;;
82296;SDS011;71899;51.992;8.648;2024-01-30T01:36:44;41.15;;;23.45;;
82296;SDS011;71899;51.992;8.648;2024-01-30T01:39:09;45.83;;;24.02;;
82296;SDS011;71899;51.992;8.648;2024-01-30T01:41:35;49.00;;;25.27;;
82296;SDS011;71899;51.992;8.648;2024-01-30T01:44:01;44.13;;;24.92;;
82296;SDS011;71899;51.992;8.648;2024-01-30T01:46:26;47.78;;;25.83;;
82296;SDS011;71899;51.992;8.648;2024-01-30T01:48:53;46.13;;;24.55;;
82296;SDS011;71899;51.992;8.648;2024-01-30T01:51:19;43.38;;;25.10;;
82296;SDS011;71899;51.992;8.648;2024-01-30T01:53:45;51.40;;;25.85;;
82296;SDS011;71899;51.992;8.648;2024-01-30T01:56:11;43.35;;;26.48;;
82296;SDS011;71899;51.992;8.648;2024-01-30T01:58:36;46.80;;;26.00;;
82296;SDS011;71899;51.992;8.648;2024-01-30T02:01:02;50.20;;;23.48;;
82296;SDS011;71899;51.992;8.648;2024-01-30T02:03:30;43.63;;;23.38;;
82296;SDS011;71899;51.992;8.648;2024-01-30T02:05:55;47.05;;;23.80;;
82296;SDS011;71899;51.992;8.648;2024-01-30T02:08:22;38.72;;;21.88;;
82296;SDS011;71899;51.992;8.648;2024-01-30T02:10:48;39.75;;;21.85;;
82296;SDS011;71899;51.992;8.648;2024-01-30T02:13:14;40.65;;;22.20;;
82296;SDS011;71899;51.992;8.648;2024-01-30T02:15:40;42.72;;;21.98;;
82296;SDS011;71899;51.992;8.648;2024-01-30T02:18:05;40.28;;;21.13;;
82296;SDS011;71899;51.992;8.648;2024-01-30T02:20:30;42.33;;;21.58;;
82296;SDS011;71899;51.992;8.648;2024-01-30T02:22:56;44.00;;;20.70;;
82296;SDS011;71899;51.992;8.648;2024-01-30T02:25:57;39.05;;;21.52;;
82296;SDS011;71899;51.992;8.648;2024-01-30T02:28:18;37.13;;;20.40;;
82296;SDS011;71899;51.992;8.648;2024-01-30T02:30:44;35.35;;;19.00;;
82296;SDS011;71899;51.992;8.648;2024-01-30T02:33:11;44.13;;;20.90;;
82296;SDS011;71899;51.992;8.648;2024-01-30T02:35:36;36.90;;;21.33;;
82296;SDS011;71899;51.992;8.648;2024-01-30T02:38:01;31.85;;;18.83;;
82296;SDS011;71899;51.992;8.648;2024-01-30T02:40:27;28.67;;;15.23;;
82296;SDS011;71899;51.992;8.648;2024-01-30T02:42:53;27.20;;;15.68;;
82296;SDS011;71899;51.992;8.648;2024-01-30T02:45:18;28.65;;;15.82;;
82296;SDS011;71899;51.992;8.648;2024-01-30T02:47:43;36.42;;;17.58;;
82296;SDS011;71899;51.992;8.648;2024-01-30T02:50:09;30.88;;;17.15;;
82296;SDS011;71899;51.992;8.648;2024-01-30T02:52:35;32.83;;;16.48;;
82296;SDS011;71899;51.992;8.648;2024-01-30T02:55:00;26.67;;;15.52;;
82296;SDS011;71899;51.992;8.648;2024-01-30T02:57:27;30.08;;;15.65;;
82296;SDS011;71899;51.992;8.648;2024-01-30T02:59:53;26.65;;;15.93;;
82296;SDS011;71899;51.992;8.648;2024-01-30T03:02:18;36.00;;;16.08;;
82296;SDS011;71899;51.992;8.648;2024-01-30T03:04:44;28.15;;;15.25;;
82296;SDS011;71899;51.992;8.648;2024-01-30T03:07:10;31.55;;;15.25;;
82296;SDS011;71899;51.992;8.648;2024-01-30T03:09:36;26.95;;;16.05;;
82296;SDS011;71899;51.992;8.648;2024-01-30T03:12:02;29.77;;;15.23;;
82296;SDS011;71899;51.992;8.648;2024-01-30T03:14:29;27.02;;;16.13;;
82296;SDS011;71899;51.992;8.648;2024-01-30T03:16:55;26.88;;;15.73;;
82296;SDS011;71899;51.992;8.648;2024-01-30T03:19:21;36.30;;;16.45;;
82296;SDS011;71899;51.992;8.648;2024-01-30T03:21:46;30.38;;;16.63;;
82296;SDS011;71899;51.992;8.648;2024-01-30T03:24:12;27.13;;;15.38;;
82296;SDS011;71899;51.992;8.648;2024-01-30T03:26:37;29.88;;;14.88;;
82296;SDS011;71899;51.992;8.648;2024-01-30T03:29:02;24.92;;;14.15;;
82296;SDS011;71899;51.992;8.648;2024-01-30T03:31:28;25.63;;;13.85;;
82296;SDS011;71899;51.992;8.648;2024-01-30T03:33:58;24.15;;;12.60;;
82296;SDS011;71899;51.992;8.648;2024-01-30T03:36:23;22.02;;;12.45;;
82296;SDS011;71899;51.992;8.648;2024-01-30T03:38:48;18.23;;;11.07;;
82296;SDS011;71899;51.992;8.648;2024-01-30T03:41:14;16.00;;;10.90;;
82296;SDS011;71899;51.992;8.648;2024-01-30T03:43:39;17.65;;;9.70;;
82296;SDS011;71899;51.992;8.648;2024-01-30T03:46:05;11.93;;;8.27;;
82296;SDS011;71899;51.992;8.648;2024-01-30T03:48:31;12.93;;;8.60;;
82296;SDS011;71899;51.992;8.648;2024-01-30T03:50:56;13.13;;;8.70;;
82296;SDS011;71899;51.992;8.648;2024-01-30T03:53:21;12.65;;;8.43;;
82296;SDS011;71899;51.992;8.648;2024-01-30T03:55:47;14.73;;;9.27;;
82296;SDS011;71899;51.992;8.648;2024-01-30T03:58:12;12.80;;;8.35;;
82296;SDS011;71899;51.992;8.648;2024-01-30T04:00:37;13.02;;;7.57;;
82296;SDS011;71899;51.992;8.648;2024-01-30T04:03:03;16.88;;;9.38;;
82296;SDS011;71899;51.992;8.648;2024-01-30T04:05:28;14.55;;;8.65;;
82296;SDS011;71899;51.992;8.648;2024-01-30T04:07:53;11.85;;;7.35;;
82296;SDS011;71899;51.992;8.648;2024-01-30T04:10:19;13.95;;;8.73;;
82296;SDS011;71899;51.992;8.648;2024-01-30T04:12:47;12.88;;;7.65;;
82296;SDS011;71899;51.992;8.648;2024-01-30T04:15:12;15.10;;;8.27;;
82296;SDS011;71899;51.992;8.648;2024-01-30T04:17:38;13.80;;;8.70;;
82296;SDS011;71899;51.992;8.648;2024-01-30T04:20:05;11.30;;;7.25;;
82296;SDS011;71899;51.992;8.648;2024-01-30T04:22:31;15.68;;;8.90;;
82296;SDS011;71899;51.992;8.648;2024-01-30T04:25:00;14.25;;;7.65;;
82296;SDS011;71899;51.992;8.648;2024-01-30T04:27:34;12.40;;;7.55;;
82296;SDS011;71899;51.992;8.648;2024-01-30T04:29:59;15.23;;;7.30;;
82296;SDS011;71899;51.992;8.648;2024-01-30T04:32:24;12.90;;;7.88;;
82296;SDS011;71899;51.992;8.648;2024-01-30T04:34:50;13.13;;;7.63;;
82296;SDS011;71899;51.992;8.648;2024-01-30T04:37:15;13.38;;;8.40;;
82296;SDS011;71899;51.992;8.648;2024-01-30T04:39:41;18.92;;;7.22;;
82296;SDS011;71899;51.992;8.648;2024-01-30T04:42:09;10.07;;;7.32;;
82296;SDS011;71899;51.992;8.648;2024-01-30T04:44:35;11.18;;;8.23;;
82296;SDS011;71899;51.992;8.648;2024-01-30T04:47:00;14.98;;;7.72;;
82296;SDS011;71899;51.992;8.648;2024-01-30T04:49:26;13.68;;;7.32;;
82296;SDS011;71899;51.992;8.648;2024-01-30T04:51:52;11.52;;;7.22;;
82296;SDS011;71899;51.992;8.648;2024-01-30T04:54:18;15.60;;;7.78;;
82296;SDS011;71899;51.992;8.648;2024-01-30T04:56:43;18.63;;;6.20;;
82296;SDS011;71899;51.992;8.648;2024-01-30T04:59:08;13.85;;;6.47;;
82296;SDS011;71899;51.992;8.648;2024-01-30T05:01:33;12.43;;;7.28;;
82296;SDS011;71899;51.992;8.648;2024-01-30T05:03:59;14.02;;;7.45;;
82296;SDS011;71899;51.992;8.648;2024-01-30T05:06:27;16.92;;;7.35;;
82296;SDS011;71899;51.992;8.648;2024-01-30T05:08:53;11.45;;;6.57;;
82296;SDS011;71899;51.992;8.648;2024-01-30T05:11:18;10.45;;;6.60;;
82296;SDS011;71899;51.992;8.648;2024-01-30T05:13:44;11.30;;;6.68;;
82296;SDS011;71899;51.992;8.648;2024-01-30T05:16:09;9.50;;;6.65;;
82296;SDS011;71899;51.992;8.648;2024-01-30T05:18:35;13.73;;;6.75;;
82296;SDS011;71899;51.992;8.648;2024-01-30T05:21:00;9.95;;;6.20;;
82296;SDS011;71899;51.992;8.648;2024-01-30T05:23:25;12.43;;;7.90;;
82296;SDS011;71899;51.992;8.648;2024-01-30T05:25:51;11.30;;;7.00;;
82296;SDS011;71899;51.992;8.648;2024-01-30T05:28:16;10.55;;;7.25;;
82296;SDS011;71899;51.992;8.648;2024-01-30T05:30:41;15.50;;;6.65;;
82296;SDS011;71899;51.992;8.648;2024-01-30T05:33:07;12.23;;;6.18;;
82296;SDS011;71899;51.992;8.648;2024-01-30T05:35:32;9.85;;;7.28;;
82296;SDS011;71899;51.992;8.648;2024-01-30T05:37:57;8.13;;;6.20;;
82296;SDS011;71899;51.992;8.648;2024-01-30T05:40:22;10.80;;;6.63;;
82296;SDS011;71899;51.992;8.648;2024-01-30T05:42:48;9.00;;;5.95;;
82296;SDS011;71899;51.992;8.648;2024-01-30T05:45:13;13.10;;;7.18;;
82296;SDS011;71899;51.992;8.648;2024-01-30T05:47:38;10.50;;;6.22;;
82296;SDS011;71899;51.992;8.648;2024-01-30T05:50:04;10.40;;;6.47;;
82296;SDS011;71899;51.992;8.648;2024-01-30T05:52:30;9.68;;;6.20;;
82296;SDS011;71899;51.992;8.648;2024-01-30T05:54:55;9.40;;;6.15;;
82296;SDS011;71899;51.992;8.648;2024-01-30T05:57:20;12.35;;;6.80;;
82296;SDS011;71899;51.992;8.648;2024-01-30T05:59:46;12.32;;;6.38;;
82296;SDS011;71899;51.992;8.648;2024-01-30T06:02:12;11.32;;;7.03;;
82296;SDS011;71899;51.992;8.648;2024-01-30T06:04:38;10.93;;;5.93;;
82296;SDS011;71899;51.992;8.648;2024-01-30T06:07:03;9.57;;;6.60;;
82296;SDS011;71899;51.992;8.648;2024-01-30T06:09:31;12.95;;;6.30;;
82296;SDS011;71899;51.992;8.648;2024-01-30T06:11:56;11.27;;;6.38;;
82296;SDS011;71899;51.992;8.648;2024-01-30T06:14:22;9.18;;;6.18;;
82296;SDS011;71899;51.992;8.648;2024-01-30T06:16:47;9.93;;;6.20;;
82296;SDS011;71899;51.992;8.648;2024-01-30T06:19:12;15.98;;;6.35;;
82296;SDS011;71899;51.992;8.648;2024-01-30T06:21:37;11.93;;;6.50;;
82296;SDS011;71899;51.992;8.648;2024-01-30T06:24:03;11.95;;;6.35;;
82296;SDS011;71899;51.992;8.648;2024-01-30T06:26:29;12.20;;;6.70;;
82296;SDS011;71899;51.992;8.648;2024-01-30T06:28:55;8.85;;;6.18;;
82296;SDS011;71899;51.992;8.648;2024-01-30T06:31:20;13.20;;;6.68;;
82296;SDS011;71899;51.992;8.648;2024-01-30T06:33:49;10.25;;;6.82;;
82296;SDS011;71899;51.992;8.648;2024-01-30T06:36:14;12.15;;;6.55;;
82296;SDS011;71899;51.992;8.648;2024-01-30T06:38:40;8.90;;;6.13;;
82296;SDS011;71899;51.992;8.648;2024-01-30T06:41:06;11.55;;;6.13;;
82296;SDS011;71899;51.992;8.648;2024-01-30T06:43:31;11.57;;;6.85;;
82296;SDS011;71899;51.992;8.648;2024-01-30T06:45:56;11.55;;;6.43;;
82296;SDS011;71899;51.992;8.648;2024-01-30T06:48:22;10.15;;;6.10;;
82296;SDS011;71899;51.992;8.648;2024-01-30T06:50:47;12.45;;;8.00;;
82296;SDS011;71899;51.992;8.648;2024-01-30T06:53:14;10.27;;;6.10;;
82296;SDS011;71899;51.992;8.648;2024-01-30T06:55:39;11.43;;;6.50;;
82296;SDS011;71899;51.992;8.648;2024-01-30T06:58:05;11.10;;;6.15;;
82296;SDS011;71899;51.992;8.648;2024-01-30T07:00:30;10.45;;;6.70;;
82296;SDS011;71899;51.992;8.648;2024-01-30T07:02:56;9.68;;;6.32;;
82296;SDS011;71899;51.992;8.648;2024-01-30T07:05:21;8.38;;;6.63;;
82296;SDS011;71899;51.992;8.648;2024-01-30T07:07:47;9.85;;;6.53;;
82296;SDS011;71899;51.992;8.648;2024-01-30T07:10:12;9.18;;;6.22;;
82296;SDS011;71899;51.992;8.648;2024-01-30T07:12:37;8.30;;;5.72;;
82296;SDS011;71899;51.992;8.648;2024-01-30T07:15:03;12.70;;;6.57;;
82296;SDS011;71899;51.992;8.648;2024-01-30T07:17:28;7.82;;;5.80;;
82296;SDS011;71899;51.992;8.648;2024-01-30T07:19:54;9.60;;;5.95;;
82296;SDS011;71899;51.992;8.648;2024-01-30T07:22:19;10.95;;;6.03;;
82296;SDS011;71899;51.992;8.648;2024-01-30T07:24:44;11.27;;;5.57;;
82296;SDS011;71899;51.992;8.648;2024-01-30T07:27:12;8.82;;;5.38;;
82296;SDS011;71899;51.992;8.648;2024-01-30T07:29:38;11.40;;;6.22;;
82296;SDS011;71899;51.992;8.648;2024-01-30T07:32:03;8.32;;;6.72;;
82296;SDS011;71899;51.992;8.648;2024-01-30T07:34:29;10.20;;;6.65;;
82296;SDS011;71899;51.992;8.648;2024-01-30T07:36:54;8.48;;;5.43;;
82296;SDS011;71899;51.992;8.648;2024-01-30T07:39:19;9.35;;;5.22;;
82296;SDS011;71899;51.992;8.648;2024-01-30T07:41:44;8.25;;;4.82;;
82296;SDS011;71899;51.992;8.648;2024-01-30T07:44:10;12.50;;;6.72;;
82296;SDS011;71899;51.992;8.648;2024-01-30T07:46:35;9.35;;;4.20;;
82296;SDS011;71899;51.992;8.648;2024-01-30T07:49:00;9.10;;;6.95;;
82296;SDS011;71899;51.992;8.648;2024-01-30T07:51:26;9.93;;;5.28;;
82296;SDS011;71899;51.992;8.648;2024-01-30T07:53:53;8.55;;;5.07;;
82296;SDS011;71899;51.992;8.648;2024-01-30T07:56:18;7.22;;;5.32;;
82296;SDS011;71899;51.992;8.648;2024-01-30T07:58:44;7.40;;;4.53;;
82296;SDS011;71899;51.992;8.648;2024-01-30T08:01:09;8.75;;;4.63;;
82296;SDS011;71899;51.992;8.648;2024-01-30T08:03:35;10.88;;;5.28;;
82296;SDS011;71899;51.992;8.648;2024-01-30T08:06:01;7.25;;;4.70;;
82296;SDS011;71899;51.992;8.648;2024-01-30T08:08:27;6.68;;;4.30;;
82296;SDS011;71899;51.992;8.648;2024-01-30T08:10:53;8.52;;;4.85;;
82296;SDS011;71899;51.992;8.648;2024-01-30T08:13:18;7.20;;;4.93;;
82296;SDS011;71899;51.992;8.648;2024-01-30T08:15:43;7.70;;;4.30;;
82296;SDS011;71899;51.992;8.648;2024-01-30T08:18:09;7.30;;;4.97;;
82296;SDS011;71899;51.992;8.648;2024-01-30T08:20:34;6.13;;;4.22;;
82296;SDS011;71899;51.992;8.648;2024-01-30T08:23:00;8.43;;;5.40;;
82296;SDS011;71899;51.992;8.648;2024-01-30T08:25:25;7.05;;;4.75;;
82296;SDS011;71899;51.992;8.648;2024-01-30T08:27:51;7.82;;;4.18;;
82296;SDS011;71899;51.992;8.648;2024-01-30T08:30:16;10.00;;;3.85;;
82296;SDS011;71899;51.992;8.648;2024-01-30T08:32:42;5.30;;;3.80;;
82296;SDS011;71899;51.992;8.648;2024-01-30T08:35:07;6.40;;;4.68;;
82296;SDS011;71899;51.992;8.648;2024-01-30T08:37:33;5.57;;;3.67;;
82296;SDS011;71899;51.992;8.648;2024-01-30T08:39:58;7.50;;;4.35;;
82296;SDS011;71899;51.992;8.648;2024-01-30T08:42:24;7.93;;;3.90;;
82296;SDS011;71899;51.992;8.648;2024-01-30T08:44:50;9.27;;;3.80;;
82296;SDS011;71899;51.992;8.648;2024-01-30T08:47:17;6.70;;;4.38;;
82296;SDS011;71899;51.992;8.648;2024-01-30T08:49:43;8.70;;;3.72;;
82296;SDS011;71899;51.992;8.648;2024-01-30T08:52:09;11.93;;;3.85;;
82296;SDS011;71899;51.992;8.648;2024-01-30T08:54:35;6.57;;;4.15;;
82296;SDS011;71899;51.992;8.648;2024-01-30T08:57:00;11.20;;;4.93;;
82296;SDS011;71899;51.992;8.648;2024-01-30T08:59:26;5.55;;;3.67;;
82296;SDS011;71899;51.992;8.648;2024-01-30T09:01:51;8.55;;;4.03;;
82296;SDS011;71899;51.992;8.648;2024-01-30T09:04:20;5.82;;;3.90;;
82296;SDS011;71899;51.992;8.648;2024-01-30T09:06:46;8.23;;;4.30;;
82296;SDS011;71899;51.992;8.648;2024-01-30T09:09:11;10.35;;;4.30;;
82296;SDS011;71899;51.992;8.648;2024-01-30T09:11:36;7.80;;;4.18;;
82296;SDS011;71899;51.992;8.648;2024-01-30T09:14:02;6.03;;;4.03;;
82296;SDS011;71899;51.992;8.648;2024-01-30T09:16:27;8.85;;;4.45;;
82296;SDS011;71899;51.992;8.648;2024-01-30T09:18:53;6.03;;;3.53;;
82296;SDS011;71899;51.992;8.648;2024-01-30T09:21:18;10.18;;;5.05;;
82296;SDS011;71899;51.992;8.648;2024-01-30T09:23:44;7.05;;;3.95;;
82296;SDS011;71899;51.992;8.648;2024-01-30T09:26:09;11.02;;;4.47;;
82296;SDS011;71899;51.992;8.648;2024-01-30T09:28:35;6.00;;;3.38;;
82296;SDS011;71899;51.992;8.648;2024-01-30T09:31:00;7.40;;;4.15;;
82296;SDS011;71899;51.992;8.648;2024-01-30T09:33:26;6.50;;;3.83;;
82296;SDS011;71899;51.992;8.648;2024-01-30T09:35:51;6.57;;;3.88;;
82296;SDS011;71899;51.992;8.648;2024-01-30T09:38:16;9.02;;;4.70;;
82296;SDS011;71899;51.992;8.648;2024-01-30T09:40:41;7.53;;;3.80;;
82296;SDS011;71899;51.992;8.648;2024-01-30T09:43:07;10.95;;;4.53;;
82296;SDS011;71899;51.992;8.648;2024-01-30T09:45:32;6.10;;;3.53;;
82296;SDS011;71899;51.992;8.648;2024-01-30T09:47:59;6.43;;;4.30;;
82296;SDS011;71899;51.992;8.648;2024-01-30T09:50:25;5.32;;;4.00;;
82296;SDS011;71899;51.992;8.648;2024-01-30T09:52:51;5.00;;;3.85;;
82296;SDS011;71899;51.992;8.648;2024-01-30T09:55:20;9.38;;;4.00;;
82296;SDS011;71899;51.992;8.648;2024-01-30T09:57:45;7.22;;;4.00;;
82296;SDS011;71899;51.992;8.648;2024-01-30T10:00:12;5.25;;;3.60;;
82296;SDS011;71899;51.992;8.648;2024-01-30T10:02:38;9.10;;;4.07;;
82296;SDS011;71899;51.992;8.648;2024-01-30T10:05:04;5.63;;;3.67;;
82296;SDS011;71899;51.992;8.648;2024-01-30T10:07:30;8.70;;;3.55;;
82296;SDS011;71899;51.992;8.648;2024-01-30T10:09:56;5.00;;;3.47;;
82296;SDS011;71899;51.992;8.648;2024-01-30T10:12:22;9.30;;;4.55;;
82296;SDS011;71899;51.992;8.648;2024-01-30T10:14:56;7.00;;;3.72;;
82296;SDS011;71899;51.992;8.648;2024-01-30T10:17:24;8.00;;;3.97;;
82296;SDS011;71899;51.992;8.648;2024-01-30T10:19:50;5.78;;;3.72;;
82296;SDS011;71899;51.992;8.648;2024-01-30T10:22:16;5.55;;;3.05;;
82296;SDS011;71899;51.992;8.648;2024-01-30T10:24:41;11.85;;;4.00;;
82296;SDS011;71899;51.992;8.648;2024-01-30T10:27:07;5.35;;;3.83;;
82296;SDS011;71899;51.992;8.648;2024-01-30T10:29:33;9.25;;;4.20;;
82296;SDS011;71899;51.992;8.648;2024-01-30T10:32:02;6.53;;;3.40;;
82296;SDS011;71899;51.992;8.648;2024-01-30T10:34:29;6.43;;;3.75;;
82296;SDS011;71899;51.992;8.648;2024-01-30T10:37:07;6.47;;;3.17;;
82296;SDS011;71899;51.992;8.648;2024-01-30T10:39:43;6.22;;;4.10;;
82296;SDS011;71899;51.992;8.648;2024-01-30T10:42:13;6.32;;;4.18;;
82296;SDS011;71899;51.992;8.648;2024-01-30T10:44:53;5.78;;;3.55;;
82296;SDS011;71899;51.992;8.648;2024-01-30T10:47:34;9.45;;;4.05;;
82296;SDS011;71899;51.992;8.648;2024-01-30T10:50:04;5.97;;;3.78;;
82296;SDS011;71899;51.992;8.648;2024-01-30T10:52:30;6.80;;;4.30;;
82296;SDS011;71899;51.992;8.648;2024-01-30T10:54:57;6.65;;;4.57;;
82296;SDS011;71899;51.992;8.648;2024-01-30T10:57:23;7.10;;;4.00;;
82296;SDS011;71899;51.992;8.648;2024-01-30T10:59:55;7.90;;;3.85;;
82296;SDS011;71899;51.992;8.648;2024-01-30T11:02:22;6.20;;;3.70;;
82296;SDS011;71899;51.992;8.648;2024-01-30T11:04:55;7.65;;;3.65;;
82296;SDS011;71899;51.992;8.648;2024-01-30T11:07:26;9.35;;;4.13;;
82296;SDS011;71899;51.992;8.648;2024-01-30T11:09:59;5.32;;;3.95;;
82296;SDS011;71899;51.992;8.648;2024-01-30T11:12:29;10.27;;;4.00;;
82296;SDS011;71899;51.992;8.648;2024-01-30T11:15:04;9.05;;;4.07;;
82296;SDS011;71899;51.992;8.648;2024-01-30T11:17:43;5.78;;;3.65;;
82296;SDS011;71899;51.992;8.648;2024-01-30T11:20:16;5.60;;;3.88;;
82296;SDS011;71899;51.992;8.648;2024-01-30T11:22:45;6.43;;;3.67;;
82296;SDS011;71899;51.992;8.648;2024-01-30T11:25:12;8.02;;;4.55;;
82296;SDS011;71899;51.992;8.648;2024-01-30T11:27:45;7.57;;;4.15;;
82296;SDS011;71899;51.992;8.648;2024-01-30T11:30:20;8.95;;;5.20;;
82296;SDS011;71899;51.992;8.648;2024-01-30T11:32:57;5.97;;;4.00;;
82296;SDS011;71899;51.992;8.648;2024-01-30T11:35:29;8.70;;;4.53;;
82296;SDS011;71899;51.992;8.648;2024-01-30T11:37:56;9.45;;;3.60;;
82296;SDS011;71899;51.992;8.648;2024-01-30T11:40:23;7.65;;;3.90;;
82296;SDS011;71899;51.992;8.648;2024-01-30T11:42:52;6.65;;;3.92;;
82296;SDS011;71899;51.992;8.648;2024-01-30T11:45:19;7.60;;;3.67;;
82296;SDS011;71899;51.992;8.648;2024-01-30T11:47:44;6.60;;;4.13;;
82296;SDS011;71899;51.992;8.648;2024-01-30T11:50:10;9.45;;;4.20;;
82296;SDS011;71899;51.992;8.648;2024-01-30T11:52:35;5.28;;;3.88;;
82296;SDS011;71899;51.992;8.648;2024-01-30T11:55:01;11.68;;;4.50;;
82296;SDS011;71899;51.992;8.648;2024-01-30T11:57:27;10.32;;;4.40;;
82296;SDS011;71899;51.992;8.648;2024-01-30T11:59:53;7.75;;;4.05;;
82296;SDS011;71899;51.992;8.648;2024-01-30T12:02:18;9.63;;;4.22;;
82296;SDS011;71899;51.992;8.648;2024-01-30T12:04:44;5.80;;;4.13;;
82296;SDS011;71899;51.992;8.648;2024-01-30T12:07:09;7.80;;;3.80;;
82296;SDS011;71899;51.992;8.648;2024-01-30T12:09:35;9.50;;;4.57;;
82296;SDS011;71899;51.992;8.648;2024-01-30T12:12:00;5.68;;;4.15;;
82296;SDS011;71899;51.992;8.648;2024-01-30T12:14:26;7.55;;;3.20;;
82296;SDS011;71899;51.992;8.648;2024-01-30T12:16:51;8.23;;;4.68;;
82296;SDS011;71899;51.992;8.648;2024-01-30T12:19:25;11.27;;;5.72;;
82296;SDS011;71899;51.992;8.648;2024-01-30T12:21:57;7.50;;;4.18;;
82296;SDS011;71899;51.992;8.648;2024-01-30T12:24:24;6.38;;;4.47;;
82296;SDS011;71899;51.992;8.648;2024-01-30T12:26:50;9.55;;;5.13;;
82296;SDS011;71899;51.992;8.648;2024-01-30T12:29:16;6.82;;;4.40;;
82296;SDS011;71899;51.992;8.648;2024-01-30T12:31:42;7.05;;;4.57;;
82296;SDS011;71899;51.992;8.648;2024-01-30T12:34:08;6.20;;;4.15;;
82296;SDS011;71899;51.992;8.648;2024-01-30T12:36:34;13.77;;;4.90;;
82296;SDS011;71899;51.992;8.648;2024-01-30T12:38:59;8.40;;;4.45;;
82296;SDS011;71899;51.992;8.648;2024-01-30T12:41:25;7.70;;;4.70;;
82296;SDS011;71899;51.992;8.648;2024-01-30T12:43:54;7.88;;;4.40;;
82296;SDS011;71899;51.992;8.648;2024-01-30T12:46:21;5.70;;;4.25;;
82296;SDS011;71899;51.992;8.648;2024-01-30T12:48:50;6.43;;;4.57;;
82296;SDS011;71899;51.992;8.648;2024-01-30T12:51:16;7.63;;;4.78;;
82296;SDS011;71899;51.992;8.648;2024-01-30T12:53:41;13.55;;;5.00;;
82296;SDS011;71899;51.992;8.648;2024-01-30T12:56:06;8.90;;;4.95;;
82296;SDS011;71899;51.992;8.648;2024-01-30T12:58:31;8.98;;;4.78;;
82296;SDS011;71899;51.992;8.648;2024-01-30T13:00:57;8.65;;;4.90;;
82296;SDS011;71899;51.992;8.648;2024-01-30T13:03:22;7.60;;;4.55;;
82296;SDS011;71899;51.992;8.648;2024-01-30T13:05:48;5.85;;;4.82;;
82296;SDS011;71899;51.992;8.648;2024-01-30T13:08:13;11.43;;;5.57;;
82296;SDS011;71899;51.992;8.648;2024-01-30T13:10:38;8.98;;;5.32;;
82296;SDS011;71899;51.992;8.648;2024-01-30T13:13:04;6.97;;;4.90;;
82296;SDS011;71899;51.992;8.648;2024-01-30T13:15:29;9.75;;;5.07;;
82296;SDS011;71899;51.992;8.648;2024-01-30T13:17:54;7.18;;;4.68;;
82296;SDS011;71899;51.992;8.648;2024-01-30T13:20:20;11.77;;;5.35;;
82296;SDS011;71899;51.992;8.648;2024-01-30T13:22:48;11.20;;;4.60;;
82296;SDS011;71899;51.992;8.648;2024-01-30T13:25:17;8.27;;;5.75;;
82296;SDS011;71899;51.992;8.648;2024-01-30T13:27:42;8.40;;;5.10;;
82296;SDS011;71899;51.992;8.648;2024-01-30T13:30:08;6.93;;;4.78;;
82296;SDS011;71899;51.992;8.648;2024-01-30T13:32:34;9.85;;;4.97;;
82296;SDS011;71899;51.992;8.648;2024-01-30T13:34:59;9.82;;;5.53;;
82296;SDS011;71899;51.992;8.648;2024-01-30T13:37:25;10.48;;;5.60;;
82296;SDS011;71899;51.992;8.648;2024-01-30T13:39:50;9.45;;;4.95;;
82296;SDS011;71899;51.992;8.648;2024-01-30T13:42:15;10.73;;;5.40;;
82296;SDS011;71899;51.992;8.648;2024-01-30T13:44:41;7.70;;;5.10;;
82296;SDS011;71899;51.992;8.648;2024-01-30T13:47:08;11.50;;;5.20;;
82296;SDS011;71899;51.992;8.648;2024-01-30T13:49:34;9.77;;;5.53;;
82296;SDS011;71899;51.992;8.648;2024-01-30T13:51:59;12.23;;;5.38;;
82296;SDS011;71899;51.992;8.648;2024-01-30T13:54:24;10.18;;;5.63;;
82296;SDS011;71899;51.992;8.648;2024-01-30T13:56:50;7.18;;;4.95;;
82296;SDS011;71899;51.992;8.648;2024-01-30T13:59:15;8.95;;;4.78;;
82296;SDS011;71899;51.992;8.648;2024-01-30T14:01:40;12.93;;;5.30;;
82296;SDS011;71899;51.992;8.648;2024-01-30T14:04:05;10.93;;;5.53;;
82296;SDS011;71899;51.992;8.648;2024-01-30T14:06:31;8.13;;;5.28;;
82296;SDS011;71899;51.992;8.648;2024-01-30T14:08:56;11.75;;;6.00;;
82296;SDS011;71899;51.992;8.648;2024-01-30T14:11:23;11.98;;;6.80;;
82296;SDS011;71899;51.992;8.648;2024-01-30T14:13:48;9.13;;;6.35;;
82296;SDS011;71899;51.992;8.648;2024-01-30T14:16:14;9.98;;;5.50;;
82296;SDS011;71899;51.992;8.648;2024-01-30T14:18:39;12.55;;;6.43;;
82296;SDS011;71899;51.992;8.648;2024-01-30T14:21:06;11.52;;;5.90;;
82296;SDS011;71899;51.992;8.648;2024-01-30T14:23:32;10.05;;;5.07;;
82296;SDS011;71899;51.992;8.648;2024-01-30T14:25:58;12.00;;;7.03;;
82296;SDS011;71899;51.992;8.648;2024-01-30T14:28:23;10.23;;;6.00;;
82296;SDS011;71899;51.992;8.648;2024-01-30T14:30:48;14.18;;;6.68;;